sensor_id;sensor_type;location;lat;lon;timestamp;P1;durP1;ratioP1;P2;durP2;ratioP2
51883;SDS011;37915;53.254;6.598;2023-07-31T00:00:48;6.43;;;3.33;;
51883;SDS011;37915;53.254;6.598;2023-07-31T00:03:14;6.32;;;4.28;;
51883;SDS011;37915;53.254;6.598;2023-07-31T00:05:40;7.43;;;3.88;;
51883;SDS011;37915;53.254;6.598;2023-07-31T00:08:05;9.32;;;3.70;;
51883;SDS011;37915;53.254;6.598;2023-07-31T00:10:31;9.60;;;4.05;;
51883;SDS011;37915;53.254;6.598;2023-07-31T00:12:57;7.53;;;3.70;;
51883;SDS011;37915;53.254;6.598;2023-07-31T00:15:22;4.60;;;3.20;;
51883;SDS011;37915;53.254;6.598;2023-07-31T00:17:48;6.28;;;3.40;;
51883;SDS011;37915;53.254;6.598;2023-07-31T00:20:14;10.15;;;4.25;;
51883;SDS011;37915;53.254;6.598;2023-07-31T00:22:39;8.98;;;3.67;;
51883;SDS011;37915;53.254;6.598;2023-07-31T00:25:05;6.72;;;3.97;;
51883;SDS011;37915;53.254;6.598;2023-07-31T00:27:31;5.93;;;4.00;;
51883;SDS011;37915;53.254;6.598;2023-07-31T00:29:57;5.53;;;3.42;;
51883;SDS011;37915;53.254;6.598;2023-07-31T00:32:23;7.20;;;3.50;;
51883;SDS011;37915;53.254;6.598;2023-07-31T00:34:48;6.22;;;3.53;;
51883;SDS011;37915;53.254;6.598;2023-07-31T00:37:14;6.32;;;3.25;;
51883;SDS011;37915;53.254;6.598;2023-07-31T00:39:40;5.05;;;2.65;;
51883;SDS011;37915;53.254;6.598;2023-07-31T00:42:06;6.35;;;3.00;;
51883;SDS011;37915;53.254;6.598;2023-07-31T00:44:32;3.92;;;2.33;;
51883;SDS011;37915;53.254;6.598;2023-07-31T00:46:58;4.93;;;3.00;;
51883;SDS011;37915;53.254;6.598;2023-07-31T00:49:24;4.63;;;2.67;;
51883;SDS011;37915;53.254;6.598;2023-07-31T00:51:50;6.60;;;3.25;;
51883;SDS011;37915;53.254;6.598;2023-07-31T00:54:16;7.03;;;2.60;;
51883;SDS011;37915;53.254;6.598;2023-07-31T00:56:41;4.45;;;2.25;;
51883;SDS011;37915;53.254;6.598;2023-07-31T00:59:11;5.55;;;3.10;;
51883;SDS011;37915;53.254;6.598;2023-07-31T01:01:37;5.75;;;2.58;;
51883;SDS011;37915;53.254;6.598;2023-07-31T01:04:03;6.95;;;3.58;;
51883;SDS011;37915;53.254;6.598;2023-07-31T01:06:48;7.55;;;2.90;;
51883;SDS011;37915;53.254;6.598;2023-07-31T01:09:33;5.57;;;3.28;;
51883;SDS011;37915;53.254;6.598;2023-07-31T01:12:07;7.28;;;2.92;;
51883;SDS011;37915;53.254;6.598;2023-07-31T01:14:37;6.10;;;3.00;;
51883;SDS011;37915;53.254;6.598;2023-07-31T01:17:03;4.47;;;2.45;;
51883;SDS011;37915;53.254;6.598;2023-07-31T01:19:29;4.15;;;2.25;;
51883;SDS011;37915;53.254;6.598;2023-07-31T01:27:26;5.50;;;2.58;;
51883;SDS011;37915;53.254;6.598;2023-07-31T01:30:00;4.78;;;2.13;;
51883;SDS011;37915;53.254;6.598;2023-07-31T01:32:35;5.13;;;2.33;;
51883;SDS011;37915;53.254;6.598;2023-07-31T01:35:04;4.38;;;1.88;;
51883;SDS011;37915;53.254;6.598;2023-07-31T01:37:30;3.28;;;1.80;;
51883;SDS011;37915;53.254;6.598;2023-07-31T01:39:56;3.50;;;1.80;;
51883;SDS011;37915;53.254;6.598;2023-07-31T01:42:21;4.50;;;2.28;;
51883;SDS011;37915;53.254;6.598;2023-07-31T01:44:47;3.58;;;2.00;;
51883;SDS011;37915;53.254;6.598;2023-07-31T01:47:13;4.22;;;2.30;;
51883;SDS011;37915;53.254;6.598;2023-07-31T01:49:38;7.13;;;2.70;;
51883;SDS011;37915;53.254;6.598;2023-07-31T01:52:05;5.45;;;2.80;;
51883;SDS011;37915;53.254;6.598;2023-07-31T01:54:31;7.88;;;3.90;;
51883;SDS011;37915;53.254;6.598;2023-07-31T01:56:57;7.40;;;3.00;;
51883;SDS011;37915;53.254;6.598;2023-07-31T01:59:23;4.32;;;2.40;;
51883;SDS011;37915;53.254;6.598;2023-07-31T02:01:49;4.18;;;2.53;;
51883;SDS011;37915;53.254;6.598;2023-07-31T02:04:14;5.65;;;2.78;;
51883;SDS011;37915;53.254;6.598;2023-07-31T02:06:40;5.70;;;3.28;;
51883;SDS011;37915;53.254;6.598;2023-07-31T02:09:06;5.50;;;2.90;;
51883;SDS011;37915;53.254;6.598;2023-07-31T02:11:31;4.00;;;2.55;;
51883;SDS011;37915;53.254;6.598;2023-07-31T02:13:57;5.22;;;2.50;;
51883;SDS011;37915;53.254;6.598;2023-07-31T02:16:23;6.00;;;2.80;;
51883;SDS011;37915;53.254;6.598;2023-07-31T02:18:48;4.40;;;2.35;;
51883;SDS011;37915;53.254;6.598;2023-07-31T02:21:14;5.47;;;2.40;;
51883;SDS011;37915;53.254;6.598;2023-07-31T02:23:39;5.55;;;2.20;;
51883;SDS011;37915;53.254;6.598;2023-07-31T02:26:05;5.45;;;2.55;;
51883;SDS011;37915;53.254;6.598;2023-07-31T02:28:31;4.05;;;2.65;;
51883;SDS011;37915;53.254;6.598;2023-07-31T02:30:56;6.60;;;2.67;;
51883;SDS011;37915;53.254;6.598;2023-07-31T02:33:22;4.57;;;2.35;;
51883;SDS011;37915;53.254;6.598;2023-07-31T02:35:48;6.18;;;2.50;;
51883;SDS011;37915;53.254;6.598;2023-07-31T02:38:13;4.35;;;1.75;;
51883;SDS011;37915;53.254;6.598;2023-07-31T02:40:39;5.63;;;2.05;;
51883;SDS011;37915;53.254;6.598;2023-07-31T02:43:06;3.47;;;1.80;;
51883;SDS011;37915;53.254;6.598;2023-07-31T02:45:33;4.32;;;1.90;;
51883;SDS011;37915;53.254;6.598;2023-07-31T02:47:58;4.63;;;1.90;;
51883;SDS011;37915;53.254;6.598;2023-07-31T02:50:24;5.75;;;1.95;;
51883;SDS011;37915;53.254;6.598;2023-07-31T02:52:50;3.63;;;1.80;;
51883;SDS011;37915;53.254;6.598;2023-07-31T02:55:15;4.70;;;2.00;;
51883;SDS011;37915;53.254;6.598;2023-07-31T02:57:41;5.18;;;2.20;;
51883;SDS011;37915;53.254;6.598;2023-07-31T03:00:07;4.50;;;1.73;;
51883;SDS011;37915;53.254;6.598;2023-07-31T03:02:33;5.60;;;1.85;;
51883;SDS011;37915;53.254;6.598;2023-07-31T03:04:58;4.20;;;1.60;;
51883;SDS011;37915;53.254;6.598;2023-07-31T03:07:24;5.18;;;2.03;;
51883;SDS011;37915;53.254;6.598;2023-07-31T03:09:50;4.47;;;2.25;;
51883;SDS011;37915;53.254;6.598;2023-07-31T03:12:16;5.60;;;2.13;;
51883;SDS011;37915;53.254;6.598;2023-07-31T03:14:41;3.65;;;1.73;;
51883;SDS011;37915;53.254;6.598;2023-07-31T03:17:07;3.20;;;1.40;;
51883;SDS011;37915;53.254;6.598;2023-07-31T03:19:33;6.38;;;1.80;;
51883;SDS011;37915;53.254;6.598;2023-07-31T03:21:59;3.90;;;2.10;;
51883;SDS011;37915;53.254;6.598;2023-07-31T03:24:25;6.53;;;1.70;;
51883;SDS011;37915;53.254;6.598;2023-07-31T03:26:51;3.60;;;1.58;;
51883;SDS011;37915;53.254;6.598;2023-07-31T03:29:16;4.78;;;1.77;;
51883;SDS011;37915;53.254;6.598;2023-07-31T03:31:42;3.90;;;1.70;;
51883;SDS011;37915;53.254;6.598;2023-07-31T03:34:08;3.53;;;1.60;;
51883;SDS011;37915;53.254;6.598;2023-07-31T03:36:33;4.82;;;1.60;;
51883;SDS011;37915;53.254;6.598;2023-07-31T03:38:59;4.18;;;1.50;;
51883;SDS011;37915;53.254;6.598;2023-07-31T03:41:25;3.38;;;1.40;;
51883;SDS011;37915;53.254;6.598;2023-07-31T03:43:51;3.95;;;1.40;;
51883;SDS011;37915;53.254;6.598;2023-07-31T03:46:23;5.00;;;1.58;;
51883;SDS011;37915;53.254;6.598;2023-07-31T03:48:49;5.45;;;1.50;;
51883;SDS011;37915;53.254;6.598;2023-07-31T03:51:15;3.97;;;1.50;;
51883;SDS011;37915;53.254;6.598;2023-07-31T03:53:42;4.32;;;1.48;;
51883;SDS011;37915;53.254;6.598;2023-07-31T03:56:08;3.58;;;1.45;;
51883;SDS011;37915;53.254;6.598;2023-07-31T03:58:34;4.38;;;1.33;;
51883;SDS011;37915;53.254;6.598;2023-07-31T04:01:01;4.90;;;1.30;;
51883;SDS011;37915;53.254;6.598;2023-07-31T04:03:26;3.28;;;1.40;;
51883;SDS011;37915;53.254;6.598;2023-07-31T04:05:53;3.42;;;1.42;;
51883;SDS011;37915;53.254;6.598;2023-07-31T04:08:19;4.15;;;1.23;;
51883;SDS011;37915;53.254;6.598;2023-07-31T04:10:45;4.03;;;1.30;;
51883;SDS011;37915;53.254;6.598;2023-07-31T04:13:12;4.60;;;1.40;;
51883;SDS011;37915;53.254;6.598;2023-07-31T04:15:38;4.63;;;1.40;;
51883;SDS011;37915;53.254;6.598;2023-07-31T04:18:04;4.10;;;1.70;;
51883;SDS011;37915;53.254;6.598;2023-07-31T04:20:30;4.35;;;1.33;;
51883;SDS011;37915;53.254;6.598;2023-07-31T04:22:56;3.75;;;1.42;;
51883;SDS011;37915;53.254;6.598;2023-07-31T04:25:21;4.22;;;1.50;;
51883;SDS011;37915;53.254;6.598;2023-07-31T04:27:47;4.30;;;1.55;;
51883;SDS011;37915;53.254;6.598;2023-07-31T04:30:13;5.15;;;1.55;;
51883;SDS011;37915;53.254;6.598;2023-07-31T04:32:39;5.43;;;1.35;;
51883;SDS011;37915;53.254;6.598;2023-07-31T04:35:04;3.55;;;1.23;;
51883;SDS011;37915;53.254;6.598;2023-07-31T04:37:30;3.63;;;1.30;;
51883;SDS011;37915;53.254;6.598;2023-07-31T04:39:56;5.47;;;1.73;;
51883;SDS011;37915;53.254;6.598;2023-07-31T04:42:22;4.88;;;1.10;;
51883;SDS011;37915;53.254;6.598;2023-07-31T04:44:48;4.15;;;1.40;;
51883;SDS011;37915;53.254;6.598;2023-07-31T04:47:13;6.72;;;1.30;;
51883;SDS011;37915;53.254;6.598;2023-07-31T04:49:39;4.55;;;1.20;;
51883;SDS011;37915;53.254;6.598;2023-07-31T04:52:05;2.80;;;1.02;;
51883;SDS011;37915;53.254;6.598;2023-07-31T04:54:31;4.38;;;1.20;;
51883;SDS011;37915;53.254;6.598;2023-07-31T04:56:56;4.75;;;1.20;;
51883;SDS011;37915;53.254;6.598;2023-07-31T04:59:22;3.90;;;1.40;;
51883;SDS011;37915;53.254;6.598;2023-07-31T05:01:48;2.28;;;0.90;;
51883;SDS011;37915;53.254;6.598;2023-07-31T05:04:13;5.57;;;1.98;;
51883;SDS011;37915;53.254;6.598;2023-07-31T05:06:40;3.22;;;1.40;;
51883;SDS011;37915;53.254;6.598;2023-07-31T05:09:06;2.70;;;1.35;;
51883;SDS011;37915;53.254;6.598;2023-07-31T05:11:32;2.35;;;0.98;;
51883;SDS011;37915;53.254;6.598;2023-07-31T05:13:57;4.20;;;1.02;;
51883;SDS011;37915;53.254;6.598;2023-07-31T05:16:23;4.60;;;1.20;;
51883;SDS011;37915;53.254;6.598;2023-07-31T05:18:48;2.97;;;1.10;;
51883;SDS011;37915;53.254;6.598;2023-07-31T05:21:14;2.67;;;1.02;;
51883;SDS011;37915;53.254;6.598;2023-07-31T05:23:40;7.60;;;1.45;;
51883;SDS011;37915;53.254;6.598;2023-07-31T05:26:06;4.38;;;1.33;;
51883;SDS011;37915;53.254;6.598;2023-07-31T05:28:33;4.38;;;1.10;;
51883;SDS011;37915;53.254;6.598;2023-07-31T05:31:00;2.58;;;0.98;;
51883;SDS011;37915;53.254;6.598;2023-07-31T05:33:26;2.72;;;0.90;;
51883;SDS011;37915;53.254;6.598;2023-07-31T05:35:52;3.28;;;1.00;;
51883;SDS011;37915;53.254;6.598;2023-07-31T05:38:17;2.97;;;1.00;;
51883;SDS011;37915;53.254;6.598;2023-07-31T05:40:43;2.35;;;1.02;;
51883;SDS011;37915;53.254;6.598;2023-07-31T05:43:09;1.95;;;0.80;;
51883;SDS011;37915;53.254;6.598;2023-07-31T05:45:34;2.17;;;1.00;;
51883;SDS011;37915;53.254;6.598;2023-07-31T05:48:01;1.65;;;0.75;;
51883;SDS011;37915;53.254;6.598;2023-07-31T05:50:27;2.50;;;0.90;;
51883;SDS011;37915;53.254;6.598;2023-07-31T05:52:53;2.83;;;0.70;;
51883;SDS011;37915;53.254;6.598;2023-07-31T05:55:19;1.48;;;0.60;;
51883;SDS011;37915;53.254;6.598;2023-07-31T05:57:45;2.88;;;1.00;;
51883;SDS011;37915;53.254;6.598;2023-07-31T06:00:11;2.60;;;0.80;;
51883;SDS011;37915;53.254;6.598;2023-07-31T06:02:37;1.55;;;0.70;;
51883;SDS011;37915;53.254;6.598;2023-07-31T06:05:03;2.80;;;0.90;;
51883;SDS011;37915;53.254;6.598;2023-07-31T06:07:31;1.73;;;0.70;;
51883;SDS011;37915;53.254;6.598;2023-07-31T06:09:57;1.92;;;0.80;;
51883;SDS011;37915;53.254;6.598;2023-07-31T06:12:28;3.53;;;1.02;;
51883;SDS011;37915;53.254;6.598;2023-07-31T06:14:54;2.33;;;0.88;;
51883;SDS011;37915;53.254;6.598;2023-07-31T06:17:20;2.42;;;1.20;;
51883;SDS011;37915;53.254;6.598;2023-07-31T06:19:46;3.00;;;1.02;;
51883;SDS011;37915;53.254;6.598;2023-07-31T06:22:12;3.35;;;1.15;;
51883;SDS011;37915;53.254;6.598;2023-07-31T06:24:38;4.05;;;1.10;;
51883;SDS011;37915;53.254;6.598;2023-07-31T06:27:03;3.67;;;1.38;;
51883;SDS011;37915;53.254;6.598;2023-07-31T06:29:31;3.08;;;1.20;;
51883;SDS011;37915;53.254;6.598;2023-07-31T06:31:56;5.57;;;1.60;;
51883;SDS011;37915;53.254;6.598;2023-07-31T06:34:22;7.53;;;1.67;;
51883;SDS011;37915;53.254;6.598;2023-07-31T06:36:48;5.93;;;1.90;;
51883;SDS011;37915;53.254;6.598;2023-07-31T06:39:13;6.30;;;1.65;;
51883;SDS011;37915;53.254;6.598;2023-07-31T06:41:39;10.85;;;2.42;;
51883;SDS011;37915;53.254;6.598;2023-07-31T06:44:05;9.35;;;3.17;;
51883;SDS011;37915;53.254;6.598;2023-07-31T06:46:30;7.93;;;2.92;;
51883;SDS011;37915;53.254;6.598;2023-07-31T06:48:56;9.02;;;3.47;;
51883;SDS011;37915;53.254;6.598;2023-07-31T06:51:22;15.32;;;5.32;;
51883;SDS011;37915;53.254;6.598;2023-07-31T06:53:47;15.90;;;5.03;;
51883;SDS011;37915;53.254;6.598;2023-07-31T06:56:13;15.82;;;5.00;;
51883;SDS011;37915;53.254;6.598;2023-07-31T06:58:39;18.90;;;5.28;;
51883;SDS011;37915;53.254;6.598;2023-07-31T07:01:05;18.00;;;5.78;;
51883;SDS011;37915;53.254;6.598;2023-07-31T07:03:32;17.27;;;5.60;;
51883;SDS011;37915;53.254;6.598;2023-07-31T07:05:57;18.80;;;5.80;;
51883;SDS011;37915;53.254;6.598;2023-07-31T07:08:24;13.27;;;6.50;;
51883;SDS011;37915;53.254;6.598;2023-07-31T07:10:50;18.00;;;6.65;;
51883;SDS011;37915;53.254;6.598;2023-07-31T07:13:15;17.23;;;6.15;;
51883;SDS011;37915;53.254;6.598;2023-07-31T07:15:43;26.77;;;6.80;;
51883;SDS011;37915;53.254;6.598;2023-07-31T07:18:13;16.45;;;5.40;;
51883;SDS011;37915;53.254;6.598;2023-07-31T07:20:39;23.83;;;5.72;;
51883;SDS011;37915;53.254;6.598;2023-07-31T07:23:05;21.52;;;5.30;;
51883;SDS011;37915;53.254;6.598;2023-07-31T07:25:30;19.52;;;6.97;;
51883;SDS011;37915;53.254;6.598;2023-07-31T07:27:56;17.02;;;5.15;;
51883;SDS011;37915;53.254;6.598;2023-07-31T07:30:22;21.70;;;6.22;;
51883;SDS011;37915;53.254;6.598;2023-07-31T07:32:50;18.88;;;5.78;;
51883;SDS011;37915;53.254;6.598;2023-07-31T07:35:15;20.33;;;5.35;;
51883;SDS011;37915;53.254;6.598;2023-07-31T07:37:41;17.73;;;5.40;;
51883;SDS011;37915;53.254;6.598;2023-07-31T07:40:07;14.90;;;5.57;;
51883;SDS011;37915;53.254;6.598;2023-07-31T07:42:33;15.35;;;4.97;;
51883;SDS011;37915;53.254;6.598;2023-07-31T07:44:59;20.05;;;4.60;;
51883;SDS011;37915;53.254;6.598;2023-07-31T07:47:24;14.90;;;4.70;;
51883;SDS011;37915;53.254;6.598;2023-07-31T07:49:50;14.63;;;4.70;;
51883;SDS011;37915;53.254;6.598;2023-07-31T07:52:16;24.48;;;5.70;;
51883;SDS011;37915;53.254;6.598;2023-07-31T07:54:41;16.35;;;4.88;;
51883;SDS011;37915;53.254;6.598;2023-07-31T07:57:07;20.40;;;5.63;;
51883;SDS011;37915;53.254;6.598;2023-07-31T07:59:33;16.05;;;5.85;;
51883;SDS011;37915;53.254;6.598;2023-07-31T08:01:58;13.65;;;5.13;;
51883;SDS011;37915;53.254;6.598;2023-07-31T08:04:24;10.90;;;3.85;;
51883;SDS011;37915;53.254;6.598;2023-07-31T08:06:50;9.35;;;3.20;;
51883;SDS011;37915;53.254;6.598;2023-07-31T08:09:15;3.25;;;1.80;;
51883;SDS011;37915;53.254;6.598;2023-07-31T08:11:41;3.78;;;1.30;;
51883;SDS011;37915;53.254;6.598;2023-07-31T08:14:07;4.22;;;1.40;;
51883;SDS011;37915;53.254;6.598;2023-07-31T08:16:32;4.82;;;1.50;;
51883;SDS011;37915;53.254;6.598;2023-07-31T08:18:58;4.00;;;1.40;;
51883;SDS011;37915;53.254;6.598;2023-07-31T08:21:24;3.33;;;1.17;;
51883;SDS011;37915;53.254;6.598;2023-07-31T08:23:49;3.53;;;1.15;;
51883;SDS011;37915;53.254;6.598;2023-07-31T08:26:15;2.80;;;1.30;;
51883;SDS011;37915;53.254;6.598;2023-07-31T08:28:44;5.72;;;1.80;;
51883;SDS011;37915;53.254;6.598;2023-07-31T08:31:10;4.07;;;1.50;;
51883;SDS011;37915;53.254;6.598;2023-07-31T08:33:36;3.17;;;1.30;;
51883;SDS011;37915;53.254;6.598;2023-07-31T08:36:03;3.85;;;1.60;;
51883;SDS011;37915;53.254;6.598;2023-07-31T08:38:29;3.47;;;1.17;;
51883;SDS011;37915;53.254;6.598;2023-07-31T08:40:56;5.32;;;1.23;;
51883;SDS011;37915;53.254;6.598;2023-07-31T08:43:22;3.85;;;1.40;;
51883;SDS011;37915;53.254;6.598;2023-07-31T08:45:51;2.72;;;1.00;;
51883;SDS011;37915;53.254;6.598;2023-07-31T08:48:17;3.33;;;1.25;;
51883;SDS011;37915;53.254;6.598;2023-07-31T08:50:46;2.97;;;0.93;;
51883;SDS011;37915;53.254;6.598;2023-07-31T08:53:11;2.80;;;1.20;;
51883;SDS011;37915;53.254;6.598;2023-07-31T08:55:38;2.40;;;1.00;;
51883;SDS011;37915;53.254;6.598;2023-07-31T08:58:04;3.00;;;1.15;;
51883;SDS011;37915;53.254;6.598;2023-07-31T09:00:31;2.35;;;1.00;;
51883;SDS011;37915;53.254;6.598;2023-07-31T09:02:59;5.10;;;1.10;;
51883;SDS011;37915;53.254;6.598;2023-07-31T09:05:32;3.97;;;1.55;;
51883;SDS011;37915;53.254;6.598;2023-07-31T09:07:58;4.22;;;1.05;;
51883;SDS011;37915;53.254;6.598;2023-07-31T09:10:26;3.05;;;1.00;;
51883;SDS011;37915;53.254;6.598;2023-07-31T09:12:52;2.53;;;1.00;;
51883;SDS011;37915;53.254;6.598;2023-07-31T09:15:18;4.63;;;1.10;;
51883;SDS011;37915;53.254;6.598;2023-07-31T09:17:44;2.75;;;1.00;;
51883;SDS011;37915;53.254;6.598;2023-07-31T09:20:17;3.08;;;0.88;;
51883;SDS011;37915;53.254;6.598;2023-07-31T09:22:45;4.10;;;1.02;;
51883;SDS011;37915;53.254;6.598;2023-07-31T09:28:01;2.38;;;0.90;;
51883;SDS011;37915;53.254;6.598;2023-07-31T09:30:32;1.33;;;0.70;;
51883;SDS011;37915;53.254;6.598;2023-07-31T09:33:13;2.10;;;0.65;;
51883;SDS011;37915;53.254;6.598;2023-07-31T09:35:39;1.63;;;0.73;;
51883;SDS011;37915;53.254;6.598;2023-07-31T09:38:07;2.78;;;1.00;;
51883;SDS011;37915;53.254;6.598;2023-07-31T09:40:37;5.07;;;1.00;;
51883;SDS011;37915;53.254;6.598;2023-07-31T09:43:08;2.10;;;0.80;;
51883;SDS011;37915;53.254;6.598;2023-07-31T09:45:39;3.05;;;0.95;;
51883;SDS011;37915;53.254;6.598;2023-07-31T09:48:12;2.05;;;0.85;;
51883;SDS011;37915;53.254;6.598;2023-07-31T09:50:43;1.65;;;0.70;;
51883;SDS011;37915;53.254;6.598;2023-07-31T09:53:10;1.15;;;0.60;;
51883;SDS011;37915;53.254;6.598;2023-07-31T09:55:37;2.67;;;0.60;;
51883;SDS011;37915;53.254;6.598;2023-07-31T09:58:04;2.58;;;0.60;;
51883;SDS011;37915;53.254;6.598;2023-07-31T10:00:31;1.98;;;0.70;;
51883;SDS011;37915;53.254;6.598;2023-07-31T10:03:15;1.42;;;0.68;;
51883;SDS011;37915;53.254;6.598;2023-07-31T10:05:45;2.28;;;0.70;;
51883;SDS011;37915;53.254;6.598;2023-07-31T10:08:15;2.58;;;0.50;;
51883;SDS011;37915;53.254;6.598;2023-07-31T10:10:43;0.98;;;0.50;;
51883;SDS011;37915;53.254;6.598;2023-07-31T10:13:10;1.50;;;0.47;;
51883;SDS011;37915;53.254;6.598;2023-07-31T10:15:39;1.10;;;0.88;;
51883;SDS011;37915;53.254;6.598;2023-07-31T10:18:06;1.70;;;0.40;;
51883;SDS011;37915;53.254;6.598;2023-07-31T10:20:33;0.98;;;0.40;;
51883;SDS011;37915;53.254;6.598;2023-07-31T10:22:59;0.80;;;0.40;;
51883;SDS011;37915;53.254;6.598;2023-07-31T10:25:26;1.10;;;0.40;;
51883;SDS011;37915;53.254;6.598;2023-07-31T10:27:53;1.80;;;0.40;;
51883;SDS011;37915;53.254;6.598;2023-07-31T10:30:24;0.95;;;0.30;;
51883;SDS011;37915;53.254;6.598;2023-07-31T10:32:54;1.70;;;0.40;;
51883;SDS011;37915;53.254;6.598;2023-07-31T10:35:20;1.80;;;0.50;;
51883;SDS011;37915;53.254;6.598;2023-07-31T10:37:49;1.17;;;0.45;;
51883;SDS011;37915;53.254;6.598;2023-07-31T10:40:23;1.20;;;0.43;;
51883;SDS011;37915;53.254;6.598;2023-07-31T10:42:54;2.25;;;0.70;;
51883;SDS011;37915;53.254;6.598;2023-07-31T10:45:40;3.08;;;0.70;;
51883;SDS011;37915;53.254;6.598;2023-07-31T10:48:14;2.35;;;0.55;;
51883;SDS011;37915;53.254;6.598;2023-07-31T10:50:47;2.85;;;0.77;;
51883;SDS011;37915;53.254;6.598;2023-07-31T10:53:28;2.95;;;0.70;;
51883;SDS011;37915;53.254;6.598;2023-07-31T10:55:59;2.10;;;0.80;;
51883;SDS011;37915;53.254;6.598;2023-07-31T10:58:24;1.70;;;0.77;;
51883;SDS011;37915;53.254;6.598;2023-07-31T11:00:50;5.80;;;1.00;;
51883;SDS011;37915;53.254;6.598;2023-07-31T11:03:24;2.28;;;0.70;;
51883;SDS011;37915;53.254;6.598;2023-07-31T11:06:06;3.00;;;0.88;;
51883;SDS011;37915;53.254;6.598;2023-07-31T11:08:33;1.88;;;0.82;;
51883;SDS011;37915;53.254;6.598;2023-07-31T11:13:29;4.90;;;1.20;;
51883;SDS011;37915;53.254;6.598;2023-07-31T11:16:04;1.55;;;0.80;;
51883;SDS011;37915;53.254;6.598;2023-07-31T11:18:29;2.30;;;0.98;;
51883;SDS011;37915;53.254;6.598;2023-07-31T11:20:55;1.77;;;0.80;;
51883;SDS011;37915;53.254;6.598;2023-07-31T11:23:21;2.28;;;0.65;;
51883;SDS011;37915;53.254;6.598;2023-07-31T11:25:47;1.27;;;0.60;;
51883;SDS011;37915;53.254;6.598;2023-07-31T11:28:14;1.35;;;0.63;;
51883;SDS011;37915;53.254;6.598;2023-07-31T11:30:42;1.98;;;0.77;;
51883;SDS011;37915;53.254;6.598;2023-07-31T11:33:09;2.17;;;0.77;;
51883;SDS011;37915;53.254;6.598;2023-07-31T11:35:44;1.35;;;0.60;;
51883;SDS011;37915;53.254;6.598;2023-07-31T11:38:21;2.08;;;0.90;;
51883;SDS011;37915;53.254;6.598;2023-07-31T11:40:48;1.90;;;0.88;;
51883;SDS011;37915;53.254;6.598;2023-07-31T11:43:14;2.40;;;0.90;;
51883;SDS011;37915;53.254;6.598;2023-07-31T11:45:44;1.58;;;0.80;;
51883;SDS011;37915;53.254;6.598;2023-07-31T11:48:33;2.58;;;0.98;;
51883;SDS011;37915;53.254;6.598;2023-07-31T11:51:02;1.85;;;0.70;;
51883;SDS011;37915;53.254;6.598;2023-07-31T11:53:31;2.65;;;0.70;;
51883;SDS011;37915;53.254;6.598;2023-07-31T11:56:03;2.88;;;1.15;;
51883;SDS011;37915;53.254;6.598;2023-07-31T11:58:31;1.40;;;0.60;;
51883;SDS011;37915;53.254;6.598;2023-07-31T12:00:59;3.05;;;0.70;;
51883;SDS011;37915;53.254;6.598;2023-07-31T12:03:25;2.15;;;1.10;;
51883;SDS011;37915;53.254;6.598;2023-07-31T12:05:55;2.30;;;0.80;;
51883;SDS011;37915;53.254;6.598;2023-07-31T12:08:21;2.33;;;0.90;;
51883;SDS011;37915;53.254;6.598;2023-07-31T12:10:52;1.90;;;0.80;;
51883;SDS011;37915;53.254;6.598;2023-07-31T12:13:25;3.25;;;1.02;;
51883;SDS011;37915;53.254;6.598;2023-07-31T12:15:55;4.55;;;1.30;;
51883;SDS011;37915;53.254;6.598;2023-07-31T12:18:23;2.78;;;1.33;;
51883;SDS011;37915;53.254;6.598;2023-07-31T12:20:56;3.75;;;1.27;;
51883;SDS011;37915;53.254;6.598;2023-07-31T12:23:25;3.25;;;1.17;;
51883;SDS011;37915;53.254;6.598;2023-07-31T12:26:11;2.78;;;1.20;;
51883;SDS011;37915;53.254;6.598;2023-07-31T12:28:45;6.22;;;1.60;;
51883;SDS011;37915;53.254;6.598;2023-07-31T12:31:20;2.60;;;0.98;;
51883;SDS011;37915;53.254;6.598;2023-07-31T12:33:47;5.07;;;1.92;;
51883;SDS011;37915;53.254;6.598;2023-07-31T12:36:20;3.70;;;1.40;;
51883;SDS011;37915;53.254;6.598;2023-07-31T12:38:47;3.58;;;1.40;;
51883;SDS011;37915;53.254;6.598;2023-07-31T12:41:14;4.20;;;1.10;;
51883;SDS011;37915;53.254;6.598;2023-07-31T12:43:40;3.38;;;1.50;;
51883;SDS011;37915;53.254;6.598;2023-07-31T12:46:07;5.60;;;1.40;;
51883;SDS011;37915;53.254;6.598;2023-07-31T12:48:34;4.05;;;1.35;;
51883;SDS011;37915;53.254;6.598;2023-07-31T12:50:59;2.40;;;1.25;;
51883;SDS011;37915;53.254;6.598;2023-07-31T12:53:25;6.07;;;1.55;;
51883;SDS011;37915;53.254;6.598;2023-07-31T12:55:51;3.17;;;1.30;;
51883;SDS011;37915;53.254;6.598;2023-07-31T12:58:17;3.00;;;1.23;;
51883;SDS011;37915;53.254;6.598;2023-07-31T13:00:43;2.88;;;1.27;;
51883;SDS011;37915;53.254;6.598;2023-07-31T13:03:08;5.82;;;1.30;;
51883;SDS011;37915;53.254;6.598;2023-07-31T13:05:34;4.00;;;1.33;;
51883;SDS011;37915;53.254;6.598;2023-07-31T13:08:00;6.72;;;1.50;;
51883;SDS011;37915;53.254;6.598;2023-07-31T13:10:26;3.30;;;1.30;;
51883;SDS011;37915;53.254;6.598;2023-07-31T13:12:53;6.97;;;1.67;;
51883;SDS011;37915;53.254;6.598;2023-07-31T13:15:19;5.32;;;1.58;;
51883;SDS011;37915;53.254;6.598;2023-07-31T13:17:45;4.60;;;1.52;;
51883;SDS011;37915;53.254;6.598;2023-07-31T13:20:12;4.72;;;1.52;;
51883;SDS011;37915;53.254;6.598;2023-07-31T13:22:38;4.70;;;1.50;;
51883;SDS011;37915;53.254;6.598;2023-07-31T13:25:03;9.20;;;2.22;;
51883;SDS011;37915;53.254;6.598;2023-07-31T13:27:30;4.78;;;1.73;;
51883;SDS011;37915;53.254;6.598;2023-07-31T13:29:56;6.85;;;2.17;;
51883;SDS011;37915;53.254;6.598;2023-07-31T13:32:21;7.68;;;1.92;;
51883;SDS011;37915;53.254;6.598;2023-07-31T13:34:47;7.75;;;2.20;;
51883;SDS011;37915;53.254;6.598;2023-07-31T13:37:14;5.25;;;2.00;;
51883;SDS011;37915;53.254;6.598;2023-07-31T13:39:40;6.07;;;2.05;;
51883;SDS011;37915;53.254;6.598;2023-07-31T13:42:06;4.45;;;1.75;;
51883;SDS011;37915;53.254;6.598;2023-07-31T13:44:36;6.45;;;1.95;;
51883;SDS011;37915;53.254;6.598;2023-07-31T13:47:03;7.90;;;2.70;;
51883;SDS011;37915;53.254;6.598;2023-07-31T13:49:29;6.30;;;2.20;;
51883;SDS011;37915;53.254;6.598;2023-07-31T13:51:55;5.22;;;2.00;;
51883;SDS011;37915;53.254;6.598;2023-07-31T13:54:22;6.03;;;2.35;;
51883;SDS011;37915;53.254;6.598;2023-07-31T13:56:48;9.45;;;2.30;;
51883;SDS011;37915;53.254;6.598;2023-07-31T13:59:14;9.13;;;2.53;;
51883;SDS011;37915;53.254;6.598;2023-07-31T14:01:41;6.22;;;2.35;;
51883;SDS011;37915;53.254;6.598;2023-07-31T14:04:08;8.23;;;2.20;;
51883;SDS011;37915;53.254;6.598;2023-07-31T14:06:33;5.95;;;2.28;;
51883;SDS011;37915;53.254;6.598;2023-07-31T14:08:59;6.13;;;2.30;;
51883;SDS011;37915;53.254;6.598;2023-07-31T14:11:25;8.23;;;2.25;;
51883;SDS011;37915;53.254;6.598;2023-07-31T14:13:51;4.45;;;2.20;;
51883;SDS011;37915;53.254;6.598;2023-07-31T14:16:17;8.80;;;2.67;;
51883;SDS011;37915;53.254;6.598;2023-07-31T14:18:43;7.35;;;2.80;;
51883;SDS011;37915;53.254;6.598;2023-07-31T14:21:10;6.45;;;2.75;;
51883;SDS011;37915;53.254;6.598;2023-07-31T14:23:36;6.70;;;2.20;;
51883;SDS011;37915;53.254;6.598;2023-07-31T14:26:02;8.18;;;2.70;;
51883;SDS011;37915;53.254;6.598;2023-07-31T14:28:28;8.50;;;2.58;;
51883;SDS011;37915;53.254;6.598;2023-07-31T14:30:53;7.97;;;2.55;;
51883;SDS011;37915;53.254;6.598;2023-07-31T14:33:19;5.97;;;2.65;;
51883;SDS011;37915;53.254;6.598;2023-07-31T14:35:45;5.60;;;2.45;;
51883;SDS011;37915;53.254;6.598;2023-07-31T14:38:10;8.30;;;3.25;;
51883;SDS011;37915;53.254;6.598;2023-07-31T14:40:36;9.50;;;2.95;;
51883;SDS011;37915;53.254;6.598;2023-07-31T14:43:03;8.63;;;2.90;;
51883;SDS011;37915;53.254;6.598;2023-07-31T14:45:29;8.77;;;3.70;;
51883;SDS011;37915;53.254;6.598;2023-07-31T14:47:54;11.20;;;3.70;;
51883;SDS011;37915;53.254;6.598;2023-07-31T14:50:20;9.18;;;3.80;;
51883;SDS011;37915;53.254;6.598;2023-07-31T14:52:48;10.82;;;3.90;;
51883;SDS011;37915;53.254;6.598;2023-07-31T14:55:14;9.02;;;3.05;;